Time;durP1;ratioP1;P1;durP2;ratioP2;P2;SDS_P1;SDS_P2;PMS_P1;PMS_P2;Temp;Humidity;BMP_temperature;BMP_pressure;BME280_temperature;BME280_humidity;BME280_pressure;Samples;Min_cycle;Max_cycle;Signal;HPM_P1;HPM_P2
2022/10/13 00:01:20;;;;;;;32.00;14.85;;;;;;;10.50;92.43;101596.03;5073406;28;20044;-54
2022/10/13 00:03:47;;;;;;;34.63;15.27;;;;;;;10.50;92.34;101593.38;5073102;28;20043;-55
2022/10/13 00:06:22;;;;;;;30.45;14.80;;;;;;;10.51;92.04;101590.59;5073377;28;20048;-54
2022/10/13 00:08:49;;;;;;;32.03;14.75;;;;;;;10.53;91.91;101593.09;5073618;28;20071;-54
2022/10/13 00:11:19;;;;;;;34.20;14.73;;;;;;;10.48;92.09;101588.19;5073500;28;20094;-55
2022/10/13 00:13:46;;;;;;;36.75;14.88;;;;;;;10.48;92.04;101590.84;5072555;28;20135;-55
2022/10/13 00:16:16;;;;;;;33.83;15.07;;;;;;;10.49;92.12;101583.72;5073601;28;20044;-55
2022/10/13 00:18:43;;;;;;;34.70;14.52;;;;;;;10.45;92.26;101582.31;5073350;28;20055;-55
2022/10/13 00:21:13;;;;;;;31.77;14.73;;;;;;;10.38;92.42;101584.66;5073616;28;20048;-55
2022/10/13 00:23:40;;;;;;;26.48;13.73;;;;;;;10.45;92.31;101579.66;5073329;28;20044;-55
2022/10/13 00:26:11;;;;;;;36.20;13.98;;;;;;;10.49;91.50;101581.06;5073417;28;20489;-55
2022/10/13 00:28:39;;;;;;;34.53;14.10;;;;;;;10.48;91.83;101574.09;5073251;28;20075;-55
2022/10/13 00:31:24;;;;;;;36.72;15.35;;;;;;;10.44;92.08;101577.97;5073454;28;20040;-56
2022/10/13 00:33:51;;;;;;;33.97;14.25;;;;;;;10.44;92.03;101575.31;5073165;28;20048;-55
2022/10/13 00:36:21;;;;;;;35.63;15.25;;;;;;;10.41;92.44;101581.75;5088771;28;20051;-55
2022/10/13 00:38:48;;;;;;;34.97;15.98;;;;;;;10.36;92.55;101581.28;5073198;28;20078;-54
2022/10/13 00:41:15;;;;;;;30.58;14.70;;;;;;;10.41;92.55;101576.44;5073376;28;20098;-55
2022/10/13 00:44:01;;;;;;;33.15;15.25;;;;;;;10.48;92.44;101571.47;5073217;28;20053;-56
2022/10/13 00:46:34;;;;;;;29.27;15.40;;;;;;;10.53;92.14;101575.38;5073291;28;20094;-55
2022/10/13 00:49:05;;;;;;;33.65;16.73;;;;;;;10.50;92.07;101567.69;5072852;28;20080;-54
2022/10/13 00:51:38;;;;;;;32.70;15.70;;;;;;;10.35;92.95;101572.50;4946252;28;20036;-56
2022/10/13 00:54:08;;;;;;;33.67;15.20;;;;;;;10.46;92.58;101568.06;5073011;28;20525;-55
2022/10/13 00:56:37;;;;;;;35.67;16.17;;;;;;;10.49;92.66;101570.47;5072712;28;20078;-54
2022/10/13 00:59:12;;;;;;;37.63;16.73;;;;;;;10.42;92.67;101564.00;5073148;28;20102;-56
2022/10/13 01:01:40;;;;;;;34.17;15.98;;;;;;;10.49;92.45;101570.47;5073012;28;20094;-55
2022/10/13 01:04:06;;;;;;;38.67;15.48;;;;;;;10.47;92.63;101556.50;5072353;28;20082;-54
2022/10/13 01:06:33;;;;;;;37.72;16.40;;;;;;;10.43;92.93;101560.41;5072808;28;20059;-55
2022/10/13 01:09:00;;;;;;;39.72;17.17;;;;;;;10.48;92.91;101552.88;5072903;28;20102;-55
2022/10/13 01:11:42;;;;;;;37.25;15.68;;;;;;;10.40;93.06;101550.88;5072595;28;20033;-55
2022/10/13 01:14:28;;;;;;;38.47;17.48;;;;;;;10.44;92.83;101551.44;5056588;28;20051;-55
2022/10/13 01:17:20;;;;;;;31.67;15.85;;;;;;;10.31;93.46;101543.72;5072967;28;20041;-56
2022/10/13 01:20:16;;;;;;;41.67;16.25;;;;;;;10.34;93.97;101541.63;5071646;28;20105;-55
2022/10/13 01:23:23;;;;;;;35.38;16.58;;;;;;;10.42;93.54;101534.84;5092444;28;20207;-55
2022/10/13 01:26:30;;;;;;;37.72;15.68;;;;;;;10.45;93.55;101538.06;5091839;28;20052;-56
2022/10/13 01:29:27;;;;;;;36.72;16.50;;;;;;;10.50;93.09;101533.19;5092859;28;20524;-54
2022/10/13 01:32:06;;;;;;;31.80;15.38;;;;;;;10.48;93.48;101536.97;5092316;28;20393;-54
2022/10/13 01:34:50;;;;;;;36.10;16.65;;;;;;;10.43;93.61;101536.53;5093217;28;20046;-55
2022/10/13 01:37:25;;;;;;;38.15;16.90;;;;;;;10.54;93.30;101536.41;5092352;28;20043;-54
2022/10/13 01:40:01;;;;;;;35.28;16.35;;;;;;;10.49;93.63;101528.84;5092724;28;20044;-55
2022/10/13 01:42:38;;;;;;;36.47;16.27;;;;;;;10.52;93.29;101535.72;5092636;28;20047;-53
2022/10/13 01:45:14;;;;;;;42.10;16.90;;;;;;;10.62;93.11;101539.22;5092981;28;20489;-54
2022/10/13 01:47:43;;;;;;;40.40;16.88;;;;;;;10.58;93.41;101532.50;5092420;28;20127;-54
2022/10/13 01:50:10;;;;;;;41.85;17.27;;;;;;;10.65;93.44;101523.03;5093109;28;20040;-54
2022/10/13 01:52:38;;;;;;;39.90;17.23;;;;;;;10.69;93.17;101526.28;4974111;28;20036;-54
2022/10/13 01:55:08;;;;;;;40.45;17.05;;;;;;;10.71;92.88;101525.19;5092783;28;20098;-55
2022/10/13 01:57:40;;;;;;;35.25;16.38;;;;;;;10.74;92.85;101519.56;5096158;28;20085;-53
2022/10/13 02:00:11;;;;;;;29.52;15.70;;;;;;;10.80;92.65;101520.00;5095261;28;20047;-54
2022/10/13 02:03:16;;;;;;;45.42;18.02;;;;;;;10.78;92.81;101516.66;5110695;27;20379;-54
2022/10/13 02:05:53;;;;;;;55.58;16.77;;;;;;;10.83;92.71;101515.28;5110291;28;20043;-53
2022/10/13 02:08:36;;;;;;;42.88;17.27;;;;;;;10.84;92.57;101508.13;5110741;28;20097;-53
2022/10/13 02:11:19;;;;;;;37.10;16.00;;;;;;;10.80;92.58;101512.03;5111344;28;20400;-53
2022/10/13 02:13:57;;;;;;;35.50;15.77;;;;;;;10.89;92.59;101511.22;5110938;28;20044;-54
2022/10/13 02:16:30;;;;;;;35.65;15.98;;;;;;;10.95;92.35;101505.34;5110589;28;20040;-53
2022/10/13 02:18:57;;;;;;;36.10;17.00;;;;;;;10.88;92.38;101506.91;5109615;28;20131;-53
2022/10/13 02:21:25;;;;;;;35.75;15.68;;;;;;;10.89;92.27;101509.41;5109822;28;20290;-54
2022/10/13 02:23:53;;;;;;;40.70;16.20;;;;;;;10.92;92.33;101509.13;5110248;28;20064;-53
2022/10/13 02:26:20;;;;;;;38.47;16.40;;;;;;;10.83;92.88;101506.47;5111012;28;20079;-53
2022/10/13 02:28:50;;;;;;;36.47;16.48;;;;;;;10.79;92.91;101507.69;5110465;28;20098;-54
2022/10/13 02:31:17;;;;;;;38.50;16.00;;;;;;;10.78;93.08;101503.38;5110579;28;20035;-53
2022/10/13 02:33:44;;;;;;;41.88;16.40;;;;;;;10.79;92.99;101494.44;5110150;28;20066;-53
2022/10/13 02:36:11;;;;;;;33.60;16.52;;;;;;;10.85;92.87;101505.34;5110285;28;20496;-54
2022/10/13 02:38:38;;;;;;;43.75;17.58;;;;;;;10.82;92.97;101500.31;5110866;28;20094;-54
2022/10/13 02:41:05;;;;;;;39.35;17.15;;;;;;;10.81;92.92;101498.66;5075689;28;20039;-54
2022/10/13 02:43:35;;;;;;;37.50;16.73;;;;;;;10.81;93.18;101508.44;5110477;28;20121;-54
2022/10/13 02:46:02;;;;;;;40.67;17.35;;;;;;;10.92;92.63;101503.00;5110276;28;20052;-54
2022/10/13 02:48:29;;;;;;;37.92;16.75;;;;;;;10.93;92.46;101507.31;5108985;28;20439;-54
2022/10/13 02:50:56;;;;;;;38.83;17.45;;;;;;;10.89;92.70;101504.09;5033563;28;20538;-55
2022/10/13 02:53:22;;;;;;;41.25;16.77;;;;;;;10.93;92.70;101500.22;5044170;28;20517;-55
2022/10/13 02:55:49;;;;;;;38.28;16.48;;;;;;;10.91;92.26;101501.31;5109558;28;20575;-55
2022/10/13 02:58:16;;;;;;;41.53;17.20;;;;;;;10.92;92.73;101500.34;5109829;28;20044;-54
2022/10/13 03:00:42;;;;;;;37.75;16.40;;;;;;;10.92;92.82;101501.16;5109699;28;20501;-55
2022/10/13 03:03:10;;;;;;;35.50;16.60;;;;;;;10.88;92.60;101497.13;5109775;28;20052;-55
2022/10/13 03:05:37;;;;;;;41.00;18.27;;;;;;;10.92;92.67;101505.66;5109450;28;20047;-55
2022/10/13 03:08:04;;;;;;;41.90;17.40;;;;;;;10.88;92.54;101491.81;5109679;28;20044;-55
2022/10/13 03:10:31;;;;;;;37.80;16.90;;;;;;;10.86;92.69;101492.91;5109824;28;20496;-54
2022/10/13 03:12:58;;;;;;;39.58;16.67;;;;;;;10.90;92.70;101481.06;5102972;28;20036;-55
2022/10/13 03:15:24;;;;;;;36.28;16.35;;;;;;;10.88;92.36;101483.03;5096238;28;20052;-54
2022/10/13 03:17:54;;;;;;;41.25;16.25;;;;;;;10.90;92.18;101481.06;5096055;28;20040;-54
2022/10/13 03:20:21;;;;;;;46.70;16.80;;;;;;;10.84;92.55;101479.81;5095933;28;20064;-55
2022/10/13 03:22:47;;;;;;;41.45;16.77;;;;;;;10.71;92.72;101480.06;5080952;28;20033;-54
2022/10/13 03:25:15;;;;;;;42.03;17.30;;;;;;;10.82;92.73;101481.72;5075723;28;20099;-54
2022/10/13 03:27:42;;;;;;;43.35;16.98;;;;;;;10.81;92.81;101482.72;5074850;28;20036;-55
2022/10/13 03:30:09;;;;;;;48.25;16.95;;;;;;;10.72;93.02;101476.41;5075775;28;20143;-54
2022/10/13 03:32:37;;;;;;;39.72;16.52;;;;;;;10.65;92.97;101474.44;5075644;28;20049;-54
2022/10/13 03:35:05;;;;;;;34.03;16.05;;;;;;;10.74;92.94;101468.31;5091222;28;20410;-54
2022/10/13 03:37:32;;;;;;;42.08;16.27;;;;;;;10.67;93.09;101467.19;5074894;28;20086;-54
2022/10/13 03:39:58;;;;;;;34.08;15.80;;;;;;;10.72;92.96;101457.84;5075441;28;20527;-54
2022/10/13 03:42:26;;;;;;;38.55;17.27;;;;;;;10.62;93.11;101456.97;5075383;28;20477;-54
2022/10/13 03:44:52;;;;;;;41.60;17.42;;;;;;;10.68;92.68;101456.44;5075483;28;20048;-54
2022/10/13 03:47:22;;;;;;;43.33;16.38;;;;;;;10.60;93.37;101456.28;5073938;28;20494;-54
2022/10/13 03:49:49;;;;;;;37.63;17.45;;;;;;;10.69;92.88;101459.94;5075280;28;20135;-54
2022/10/13 03:52:15;;;;;;;34.40;16.77;;;;;;;10.68;92.80;101452.97;4956693;28;20040;-55
2022/10/13 03:54:42;;;;;;;40.85;16.60;;;;;;;10.70;92.90;101459.78;5075114;28;20051;-54
2022/10/13 03:57:08;;;;;;;37.20;16.17;;;;;;;10.67;93.31;101456.56;5074783;28;20041;-54
2022/10/13 03:59:35;;;;;;;36.08;15.82;;;;;;;10.72;93.04;101457.84;5074609;28;20045;-54
2022/10/13 04:02:03;;;;;;;40.05;16.10;;;;;;;10.71;92.99;101450.88;5074648;28;20114;-54
2022/10/13 04:04:30;;;;;;;34.40;15.55;;;;;;;10.69;92.58;101444.00;5074089;28;20040;-55
2022/10/13 04:06:56;;;;;;;41.25;17.50;;;;;;;10.76;92.57;101451.28;5075085;28;20049;-54
2022/10/13 04:09:23;;;;;;;42.92;16.13;;;;;;;10.75;92.48;101452.25;5074612;28;20052;-54
2022/10/13 04:11:50;;;;;;;38.92;16.75;;;;;;;10.75;92.44;101446.09;5074875;28;20040;-54
2022/10/13 04:14:18;;;;;;;36.97;16.23;;;;;;;10.79;92.51;101451.97;5073795;28;20094;-54
2022/10/13 04:16:45;;;;;;;36.95;15.88;;;;;;;10.85;91.53;101448.78;5074662;28;20044;-54
2022/10/13 04:19:14;;;;;;;42.53;16.92;;;;;;;10.77;92.20;101457.44;5074870;28;20123;-54
2022/10/13 04:21:41;;;;;;;42.88;17.00;;;;;;;10.75;92.41;101454.06;5074440;28;20516;-54
2022/10/13 04:24:11;;;;;;;40.08;16.90;;;;;;;10.77;91.95;101454.78;5072832;28;20048;-54
2022/10/13 04:26:38;;;;;;;37.17;16.15;;;;;;;10.71;92.42;101448.22;5074346;28;20401;-54
2022/10/13 04:29:08;;;;;;;36.75;16.48;;;;;;;10.78;92.19;101445.84;5074447;28;20460;-54
2022/10/13 04:31:35;;;;;;;34.45;15.98;;;;;;;10.78;92.55;101439.69;5074542;28;20074;-54
2022/10/13 04:34:02;;;;;;;44.92;16.00;;;;;;;10.71;92.60;101440.25;5074107;28;20090;-54
2022/10/13 04:36:29;;;;;;;36.20;15.93;;;;;;;10.75;92.42;101436.34;5074469;28;20037;-54
2022/10/13 04:38:56;;;;;;;38.28;16.70;;;;;;;10.78;92.54;101437.88;5074242;28;20044;-55
2022/10/13 04:41:23;;;;;;;38.58;16.63;;;;;;;10.82;92.33;101441.09;5074247;28;20098;-53
2022/10/13 04:43:51;;;;;;;37.08;16.27;;;;;;;10.77;92.49;101438.88;5073080;28;20060;-53
2022/10/13 04:46:22;;;;;;;40.35;16.15;;;;;;;10.81;92.45;101434.13;5073782;28;20422;-54
2022/10/13 04:48:50;;;;;;;31.63;15.18;;;;;;;10.72;92.31;101423.34;5074230;28;20051;-55
2022/10/13 04:51:20;;;;;;;42.63;16.60;;;;;;;10.70;92.66;101420.00;4960432;28;20643;-54
2022/10/13 04:54:04;;;;;;;43.72;18.00;;;;;;;10.80;92.34;101430.59;5073969;28;20055;-55
2022/10/13 04:56:32;;;;;;;40.90;16.50;;;;;;;10.74;92.61;101429.34;5073691;28;20083;-55
2022/10/13 04:59:01;;;;;;;38.95;16.50;;;;;;;10.81;92.76;101428.81;5073839;28;20106;-55
2022/10/13 05:01:28;;;;;;;38.60;16.80;;;;;;;10.72;92.95;101428.66;5073301;28;20040;-54
2022/10/13 05:03:57;;;;;;;42.53;17.25;;;;;;;10.78;92.75;101424.59;5072971;28;20501;-55
2022/10/13 05:06:28;;;;;;;35.78;16.63;;;;;;;10.71;93.08;101415.50;5073670;28;20378;-54
2022/10/13 05:08:55;;;;;;;41.08;17.10;;;;;;;10.78;92.90;101432.56;5073351;28;20446;-54
2022/10/13 05:11:25;;;;;;;38.33;17.58;;;;;;;10.74;93.01;101426.69;5073737;28;20041;-55
2022/10/13 05:13:53;;;;;;;44.85;16.70;;;;;;;10.66;93.54;101421.25;5073525;28;20064;-55
2022/10/13 05:16:21;;;;;;;47.72;17.92;;;;;;;10.83;93.01;101421.53;5073494;28;20522;-54
2022/10/13 05:18:49;;;;;;;46.58;17.42;;;;;;;10.89;92.94;101418.31;5073387;28;20131;-55
2022/10/13 05:21:18;;;;;;;36.35;17.13;;;;;;;10.87;92.96;101423.75;5073558;28;20045;-54
2022/10/13 05:23:45;;;;;;;38.55;16.30;;;;;;;10.74;93.33;101420.56;5091889;28;20511;-55
2022/10/13 05:26:15;;;;;;;44.47;16.75;;;;;;;10.81;93.03;101427.00;5093613;28;20048;-54
2022/10/13 05:28:43;;;;;;;39.28;17.60;;;;;;;10.88;92.55;101414.84;5092773;28;20485;-53
2022/10/13 05:31:16;;;;;;;37.33;17.95;;;;;;;10.88;92.32;101400.72;5093487;28;20050;-55
2022/10/13 05:33:45;;;;;;;39.25;16.95;;;;;;;10.89;92.66;101407.69;5093437;28;20064;-59
2022/10/13 05:36:18;;;;;;;37.72;16.02;;;;;;;10.90;92.56;101404.09;5093191;28;20048;-56
2022/10/13 05:38:50;;;;;;;46.38;16.83;;;;;;;10.82;92.76;101399.44;5093753;28;20070;-55
2022/10/13 05:41:17;;;;;;;41.45;18.27;;;;;;;10.82;93.03;101414.53;5093535;28;20048;-55
2022/10/13 05:43:44;;;;;;;40.28;17.77;;;;;;;10.92;92.35;101405.59;5091993;28;20550;-55
2022/10/13 05:46:11;;;;;;;41.70;16.70;;;;;;;10.87;92.36;101409.66;5092932;28;20105;-55
2022/10/13 05:48:38;;;;;;;40.45;16.50;;;;;;;10.85;92.94;101404.50;5093265;28;20120;-55
2022/10/13 05:51:09;;;;;;;47.10;17.70;;;;;;;10.86;92.50;101392.03;4988250;28;20435;-55
2022/10/13 05:53:41;;;;;;;35.80;17.05;;;;;;;10.93;92.85;101401.13;5075109;28;20036;-55
2022/10/13 05:56:14;;;;;;;36.00;16.65;;;;;;;10.95;92.40;101393.84;5092736;28;20068;-55
2022/10/13 05:58:46;;;;;;;46.00;16.90;;;;;;;10.96;92.29;101395.53;5092977;28;20539;-55
2022/10/13 06:01:18;;;;;;;42.42;16.15;;;;;;;10.87;92.43;101396.41;5091716;28;20055;-55
2022/10/13 06:03:47;;;;;;;49.85;17.52;;;;;;;10.81;92.35;101389.00;5092579;28;20122;-55
2022/10/13 06:06:15;;;;;;;35.00;15.80;;;;;;;10.91;92.54;101389.81;5092395;28;20089;-55
2022/10/13 06:08:41;;;;;;;35.08;16.05;;;;;;;10.95;92.41;101389.41;5093119;28;20048;-55
2022/10/13 06:11:09;;;;;;;38.72;17.17;;;;;;;10.93;92.32;101385.19;5092651;28;20036;-55
2022/10/13 06:13:35;;;;;;;42.22;17.38;;;;;;;10.94;92.25;101378.94;5093174;28;20036;-57
2022/10/13 06:16:02;;;;;;;41.42;17.45;;;;;;;10.86;92.60;101370.81;5092837;28;20127;-55
2022/10/13 06:18:29;;;;;;;35.20;17.48;;;;;;;10.90;92.57;101377.53;5093169;28;20056;-55
2022/10/13 06:20:56;;;;;;;33.83;16.05;;;;;;;10.88;92.50;101364.41;5093042;28;20044;-55
2022/10/13 06:23:23;;;;;;;39.17;16.90;;;;;;;10.93;92.36;101380.75;5092685;28;20041;-55
2022/10/13 06:25:51;;;;;;;34.22;16.08;;;;;;;10.93;92.35;101386.06;5093431;28;20051;-55
2022/10/13 06:28:19;;;;;;;30.50;15.90;;;;;;;10.97;91.80;101378.66;5092693;28;20040;-55
2022/10/13 06:30:52;;;;;;;37.47;16.92;;;;;;;11.01;91.73;101388.00;5093205;28;20050;-54
2022/10/13 06:33:21;;;;;;;38.20;15.82;;;;;;;11.00;91.94;101383.66;5092632;28;20109;-55
2022/10/13 06:35:49;;;;;;;40.92;16.60;;;;;;;10.99;91.69;101389.97;5092894;28;20485;-55
2022/10/13 06:38:16;;;;;;;89.72;19.63;;;;;;;11.05;91.58;101384.09;5091127;28;20041;-54
2022/10/13 06:40:46;;;;;;;53.85;16.58;;;;;;;11.08;90.77;101377.66;5092940;28;20501;-55
2022/10/13 06:43:13;;;;;;;41.60;16.55;;;;;;;11.02;91.15;101370.25;5092650;28;20047;-55
2022/10/13 06:45:40;;;;;;;40.28;17.10;;;;;;;11.07;90.85;101374.16;5091443;28;20507;-54
2022/10/13 06:48:07;;;;;;;35.08;15.95;;;;;;;11.11;90.63;101372.91;5093928;28;20036;-55
2022/10/13 06:50:34;;;;;;;36.80;16.58;;;;;;;11.14;90.96;101369.13;5096163;28;20511;-55
2022/10/13 06:53:03;;;;;;;37.50;16.05;;;;;;;11.20;90.73;101378.34;4978797;28;20048;-55
2022/10/13 06:55:29;;;;;;;39.08;16.80;;;;;;;11.21;90.75;101383.50;5096288;28;20090;-55
2022/10/13 06:57:56;;;;;;;35.58;16.27;;;;;;;11.20;90.54;101370.38;5096163;28;20040;-55
2022/10/13 07:00:23;;;;;;;33.30;16.08;;;;;;;11.32;89.94;101378.03;5096222;28;20044;-55
2022/10/13 07:02:51;;;;;;;31.00;16.08;;;;;;;11.24;89.87;101375.25;5096225;28;20074;-55
2022/10/13 07:05:18;;;;;;;35.40;16.88;;;;;;;11.33;89.75;101370.88;5095374;28;20044;-55
2022/10/13 07:07:45;;;;;;;35.85;15.77;;;;;;;11.37;89.75;101380.25;5088513;28;20048;-55
2022/10/13 07:10:12;;;;;;;35.63;17.27;;;;;;;11.39;89.65;101374.78;5091326;28;20048;-55
2022/10/13 07:12:39;;;;;;;34.83;16.05;;;;;;;11.39;89.67;101380.97;5095676;28;20040;-54
2022/10/13 07:15:07;;;;;;;37.97;16.55;;;;;;;11.36;89.02;101373.25;5095725;28;20044;-55
2022/10/13 07:17:34;;;;;;;39.63;16.60;;;;;;;11.38;89.38;101379.25;5096150;28;20051;-55
2022/10/13 07:20:02;;;;;;;37.33;16.38;;;;;;;11.43;89.36;101385.00;5094602;28;20048;-55
2022/10/13 07:22:32;;;;;;;42.40;16.80;;;;;;;11.45;89.35;101384.84;5092854;28;20032;-55
2022/10/13 07:24:58;;;;;;;41.05;16.25;;;;;;;11.45;88.88;101385.69;5079079;28;20383;-55
2022/10/13 07:27:26;;;;;;;33.55;15.23;;;;;;;11.60;88.68;101386.06;5084888;28;20485;-54
2022/10/13 07:29:53;;;;;;;34.60;16.08;;;;;;;11.47;88.83;101380.22;5110709;28;20088;-55
2022/10/13 07:32:20;;;;;;;33.10;15.98;;;;;;;11.47;89.26;101359.81;5096228;28;20085;-55
2022/10/13 07:34:51;;;;;;;36.00;16.48;;;;;;;11.53;88.61;101355.72;5095807;28;20048;-55
2022/10/13 07:37:17;;;;;;;35.38;15.38;;;;;;;11.63;88.76;101363.69;5093089;28;20069;-55
2022/10/13 07:39:44;;;;;;;35.70;15.85;;;;;;;11.69;88.37;101371.06;5082978;28;20067;-55
2022/10/13 07:42:11;;;;;;;34.25;16.30;;;;;;;11.83;88.15;101369.75;5085458;28;20105;-55
2022/10/13 07:44:38;;;;;;;36.35;16.98;;;;;;;11.85;87.47;101373.09;5087111;28;20054;-56
2022/10/13 07:47:05;;;;;;;39.85;16.40;;;;;;;12.02;87.49;101371.50;5100261;28;20553;-55
2022/10/13 07:49:31;;;;;;;32.45;16.15;;;;;;;12.01;86.37;101386.63;5095615;28;20401;-55
2022/10/13 07:52:01;;;;;;;43.63;16.30;;;;;;;12.12;86.60;101374.97;5045160;28;20043;-55
2022/10/13 07:54:28;;;;;;;31.20;16.23;;;;;;;12.10;86.29;101377.75;5093480;28;20044;-55
2022/10/13 07:56:55;;;;;;;47.50;17.95;;;;;;;12.24;85.90;101381.75;5096697;28;20130;-68
2022/10/13 07:59:22;;;;;;;36.97;17.25;;;;;;;12.27;85.64;101386.75;5079711;28;20490;-68
2022/10/13 08:01:49;;;;;;;38.55;15.85;;;;;;;12.26;85.13;101385.09;5090087;28;20579;-68
2022/10/13 08:04:16;;;;;;;31.52;15.77;;;;;;;12.36;84.75;101381.53;5083032;28;20123;-68
2022/10/13 08:06:43;;;;;;;33.60;16.92;;;;;;;12.35;84.79;101386.03;5103128;28;20043;-68
2022/10/13 08:09:11;;;;;;;32.80;16.75;;;;;;;12.48;85.10;101386.50;5062219;28;20126;-68
2022/10/13 08:11:38;;;;;;;36.67;16.55;;;;;;;12.59;84.27;101389.94;5101079;28;20079;-68
2022/10/13 08:14:04;;;;;;;40.33;17.08;;;;;;;12.60;84.40;101387.09;5097799;28;20038;-70
2022/10/13 08:16:32;;;;;;;38.78;16.15;;;;;;;12.57;84.42;101381.22;5098106;28;20105;-68
2022/10/13 08:18:59;;;;;;;41.58;16.08;;;;;;;12.65;84.69;101394.63;5079886;28;20035;-57
2022/10/13 08:21:28;;;;;;;37.60;16.42;;;;;;;12.43;84.70;101395.91;5083581;28;20040;-55
2022/10/13 08:24:16;;;;;;;32.60;16.63;;;;;;;12.49;84.91;101398.78;5077252;28;20025;-55
2022/10/13 08:26:45;;;;;;;36.85;17.25;;;;;;;12.49;85.53;101392.63;5099459;28;20105;-55
2022/10/13 08:29:13;;;;;;;38.90;17.98;;;;;;;12.55;84.96;101393.84;5097352;28;20040;-55
2022/10/13 08:31:46;;;;;;;41.35;17.83;;;;;;;12.59;85.02;101398.75;5089258;28;20044;-55
2022/10/13 08:34:18;;;;;;;91.82;19.88;;;;;;;12.62;84.97;101389.59;5089202;28;20031;-55
2022/10/13 08:36:46;;;;;;;41.22;17.48;;;;;;;12.58;84.51;101388.25;5085666;28;20048;-55
2022/10/13 08:39:13;;;;;;;107.22;21.33;;;;;;;12.65;84.79;101382.16;5078412;28;20048;-55
2022/10/13 08:41:42;;;;;;;40.17;16.73;;;;;;;12.74;83.95;101372.41;5094955;28;20047;-56
2022/10/13 08:44:47;;;;;;;37.80;17.25;;;;;;;12.78;84.15;101376.44;5087527;28;20131;-56
2022/10/13 08:47:43;;;;;;;33.55;16.65;;;;;;;12.83;83.45;101365.34;5084765;28;20066;-55
2022/10/13 08:50:18;;;;;;;38.97;16.70;;;;;;;12.84;83.83;101365.19;5087472;28;20036;-56
2022/10/13 08:52:56;;;;;;;36.90;16.55;;;;;;;12.79;83.20;101369.31;5035057;28;20052;-55
2022/10/13 08:55:32;;;;;;;36.00;16.05;;;;;;;12.93;83.85;101365.25;5107324;28;20044;-56
2022/10/13 08:58:00;;;;;;;45.55;17.80;;;;;;;12.90;83.67;101370.88;5082250;28;20493;-55
2022/10/13 09:00:28;;;;;;;39.90;16.63;;;;;;;12.96;83.38;101367.63;5100251;28;20044;-56
2022/10/13 09:03:18;;;;;;;33.85;16.00;;;;;;;12.95;82.56;101364.13;5102263;28;20051;-55
2022/10/13 09:06:12;;;;;;;42.40;16.80;;;;;;;12.89;82.79;101375.38;5073809;28;20042;-56
2022/10/13 09:08:44;;;;;;;112.22;21.27;;;;;;;13.08;82.90;101366.38;5081213;28;20044;-55
2022/10/13 09:11:12;;;;;;;42.03;16.75;;;;;;;13.19;82.28;101362.63;5089116;28;20048;-55
2022/10/13 09:13:39;;;;;;;36.75;16.27;;;;;;;13.37;80.69;101360.78;5087049;28;20094;-54
2022/10/13 09:16:06;;;;;;;36.55;17.48;;;;;;;13.38;80.78;101367.75;5084504;28;20131;-55
2022/10/13 09:18:33;;;;;;;31.58;16.38;;;;;;;13.37;80.92;101360.78;5072939;28;20081;-55
2022/10/13 09:21:19;;;;;;;40.42;16.48;;;;;;;13.60;80.19;101361.06;5081129;28;20097;-55
2022/10/13 09:23:50;;;;;;;38.05;15.88;;;;;;;13.73;79.90;101365.13;5099223;28;20417;-55
2022/10/13 09:26:21;;;;;;;34.13;15.93;;;;;;;13.89;79.47;101362.53;5086000;28;20131;-55
2022/10/13 09:28:49;;;;;;;38.70;16.05;;;;;;;13.91;78.35;101359.69;5101673;28;20101;-55
2022/10/13 09:31:24;;;;;;;41.78;16.48;;;;;;;14.15;78.30;101361.59;5086987;28;20870;-55
2022/10/13 09:34:21;;;;;;;39.10;16.55;;;;;;;14.52;77.09;101365.72;5087041;28;20059;-54
2022/10/13 09:36:57;;;;;;;32.72;16.30;;;;;;;14.57;75.71;101361.59;5094297;28;20051;-55
2022/10/13 09:39:24;;;;;;;32.88;15.77;;;;;;;14.89;75.55;101359.91;5093921;28;20123;-55
2022/10/13 09:41:51;;;;;;;41.63;15.63;;;;;;;14.88;74.35;101352.06;5099479;28;20085;-55
2022/10/13 09:44:28;;;;;;;39.03;16.13;;;;;;;15.02;74.52;101351.38;5081240;28;20029;-55
2022/10/13 09:47:00;;;;;;;35.60;14.82;;;;;;;15.09;73.96;101346.22;5085620;28;20586;-55
2022/10/13 09:49:30;;;;;;;;;;;;;;;15.29;73.09;101341.34;5100027;28;20047;-55
2022/10/13 09:52:03;;;;;;;33.28;14.95;;;;;;;15.29;73.48;101342.16;5065767;28;20284;-56
2022/10/13 09:54:49;;;;;;;39.92;15.77;;;;;;;15.21;72.44;101336.00;5092801;28;20132;-56
2022/10/13 09:57:33;;;;;;;38.50;15.40;;;;;;;15.39;72.62;101335.78;5102797;28;20069;-56
2022/10/13 10:00:23;;;;;;;38.53;16.15;;;;;;;15.40;72.30;101327.59;5077402;28;20409;-55
2022/10/13 10:02:56;;;;;;;38.33;16.20;;;;;;;15.34;72.77;101330.97;5086041;28;20047;-56
2022/10/13 10:05:40;;;;;;;34.95;16.60;;;;;;;15.28;73.00;101329.81;5072825;28;20037;-55
2022/10/13 10:08:20;;;;;;;35.00;15.07;;;;;;;15.28;73.42;101319.13;5093014;28;20048;-55
2022/10/13 10:10:48;;;;;;;39.05;15.55;;;;;;;15.16;73.58;101313.28;5078266;28;20074;-55
2022/10/13 10:13:15;;;;;;;34.78;14.82;;;;;;;15.15;74.05;101311.63;5071855;28;20036;-56
2022/10/13 10:16:05;;;;;;;34.60;16.42;;;;;;;15.14;74.52;101309.13;5073974;28;20577;-55
2022/10/13 10:18:54;;;;;;;34.85;14.52;;;;;;;15.13;74.38;101315.47;5086270;28;20076;-56
2022/10/13 10:21:50;;;;;;;33.58;14.80;;;;;;;15.23;73.70;101317.97;5103628;28;20043;-56
2022/10/13 10:27:10;;;;;;;38.38;16.15;;;;;;;15.71;73.17;101311.59;5112936;27;20480;-54
2022/10/13 10:29:59;;;;;;;38.95;15.35;;;;;;;16.05;71.52;101312.31;5088134;28;20040;-55
2022/10/13 10:32:41;;;;;;;37.33;15.25;;;;;;;16.47;70.92;101309.19;5084313;28;20044;-55
2022/10/13 10:35:10;;;;;;;;;;;;;;;17.00;68.11;101306.56;5099254;28;20040;-54
2022/10/13 10:38:17;;;;;;;34.35;13.43;;;;;;;17.84;65.47;101302.75;5097191;28;19974;-54
2022/10/13 10:41:09;;;;;;;29.77;13.40;;;;;;;18.44;63.70;101303.44;5102081;28;20051;-55
2022/10/13 10:43:47;;;;;;;30.65;14.00;;;;;;;18.82;62.39;101294.28;5091031;28;20577;-55
2022/10/13 10:46:22;;;;;;;30.77;14.10;;;;;;;19.04;60.50;101290.50;5091054;28;20741;-56
2022/10/13 10:48:53;;;;;;;38.90;14.65;;;;;;;18.63;61.58;101299.28;5085634;28;20072;-55
2022/10/13 10:51:22;;;;;;;;;;;;;;;18.13;63.05;101291.13;5049201;28;20048;-55
2022/10/13 10:54:22;;;;;;;67.30;36.08;;;;;;;18.01;64.20;101288.13;5078492;28;19920;-44
2022/10/13 10:57:17;;;;;;;31.50;15.07;;;;;;;17.53;65.03;101290.41;5101635;28;20040;-55
2022/10/13 10:59:53;;;;;;;39.65;13.63;;;;;;;17.73;65.25;101276.41;5101176;28;20102;-55
2022/10/13 11:02:47;;;;;;;31.70;13.95;;;;;;;17.25;65.71;101277.66;5083751;28;20032;-56
2022/10/13 11:05:15;;;;;;;33.58;13.80;;;;;;;17.11;66.95;101280.34;5083985;28;20048;-56
2022/10/13 11:10:20;;;;;;;35.80;14.73;;;;;;;16.81;68.15;101277.63;5180376;27;20151;-54
2022/10/13 11:15:40;;;;;;;32.10;14.10;;;;;;;16.72;69.46;101265.28;5060021;28;20378;-56
2022/10/13 11:18:46;;;;;;;33.58;13.82;;;;;;;16.69;69.89;101272.66;5079699;28;20045;-55
2022/10/13 11:21:13;;;;;;;37.78;14.30;;;;;;;16.65;70.53;101270.56;5068833;28;20045;-55
2022/10/13 11:23:46;;;;;;;34.63;13.82;;;;;;;16.53;70.60;101264.78;5062091;28;20068;-55
2022/10/13 11:26:31;;;;;;;29.20;12.80;;;;;;;16.59;71.00;101265.91;5057145;28;20497;-55
2022/10/13 11:28:58;;;;;;;35.22;13.18;;;;;;;16.56;71.18;101267.09;5062399;28;20049;-55
2022/10/13 11:31:31;;;;;;;32.00;14.15;;;;;;;16.35;70.99;101267.75;5061331;28;20045;-56
2022/10/13 11:34:00;;;;;;;35.25;13.38;;;;;;;16.34;71.37;101265.28;5068924;28;20036;-56
2022/10/13 11:36:31;;;;;;;26.52;12.73;;;;;;;16.30;72.49;101264.81;5061815;28;20048;-55
2022/10/13 11:39:28;;;;;;;29.15;8.52;;;;;;;16.38;68.30;101266.59;5074205;28;20033;-55